sensor_id;sensor_type;location;lat;lon;timestamp;pressure;altitude;pressure_sealevel;temperature;humidity
70053;BME280;57398;52.032;4.376;2023-08-21T00:02:43;101783.53;;;15.44;nan
70053;BME280;57398;52.032;4.376;2023-08-21T00:05:31;101775.69;;;15.44;nan
70053;BME280;57398;52.032;4.376;2023-08-21T00:08:20;101773.16;;;15.38;nan
70053;BME280;57398;52.032;4.376;2023-08-21T00:11:08;101781.03;;;15.38;nan
70053;BME280;57398;52.032;4.376;2023-08-21T00:13:56;101801.59;;;15.34;nan
70053;BME280;57398;52.032;4.376;2023-08-21T00:16:44;101792.38;;;15.32;nan
70053;BME280;57398;52.032;4.376;2023-08-21T00:19:34;101783.06;;;15.24;nan
70053;BME280;57398;52.032;4.376;2023-08-21T00:22:22;101789.78;;;15.32;nan
70053;BME280;57398;52.032;4.376;2023-08-21T00:25:10;101777.94;;;15.29;nan
70053;BME280;57398;52.032;4.376;2023-08-21T00:27:58;101761.53;;;15.22;nan
70053;BME280;57398;52.032;4.376;2023-08-21T00:30:47;101766.31;;;15.25;nan
70053;BME280;57398;52.032;4.376;2023-08-21T00:33:35;101764.72;;;15.24;nan
70053;BME280;57398;52.032;4.376;2023-08-21T00:36:25;101765.16;;;15.21;nan
70053;BME280;57398;52.032;4.376;2023-08-21T00:39:13;101768.72;;;15.15;nan
70053;BME280;57398;52.032;4.376;2023-08-21T00:42:01;101762.53;;;15.09;nan
70053;BME280;57398;52.032;4.376;2023-08-21T00:44:49;101764.94;;;15.11;nan
70053;BME280;57398;52.032;4.376;2023-08-21T00:50:26;101768.03;;;15.19;nan
70053;BME280;57398;52.032;4.376;2023-08-21T00:53:16;101704.44;;;15.19;nan
70053;BME280;57398;52.032;4.376;2023-08-21T00:56:04;101729.22;;;15.16;nan
70053;BME280;57398;52.032;4.376;2023-08-21T00:58:52;101724.44;;;15.13;nan
70053;BME280;57398;52.032;4.376;2023-08-21T01:01:40;101683.94;;;15.16;nan
70053;BME280;57398;52.032;4.376;2023-08-21T01:07:17;101625.44;;;15.22;nan
70053;BME280;57398;52.032;4.376;2023-08-21T01:10:12;101600.41;;;15.26;nan
70053;BME280;57398;52.032;4.376;2023-08-21T01:13:08;101567.75;;;15.28;nan
70053;BME280;57398;52.032;4.376;2023-08-21T01:16:00;101611.66;;;15.26;nan
70053;BME280;57398;52.032;4.376;2023-08-21T01:18:49;101627.38;;;15.26;nan
70053;BME280;57398;52.032;4.376;2023-08-21T01:21:37;101649.44;;;15.31;nan
70053;BME280;57398;52.032;4.376;2023-08-21T01:24:27;101651.25;;;15.30;nan
70053;BME280;57398;52.032;4.376;2023-08-21T01:27:15;101639.56;;;15.33;nan
70053;BME280;57398;52.032;4.376;2023-08-21T01:30:05;101569.97;;;15.37;nan
70053;BME280;57398;52.032;4.376;2023-08-21T01:32:59;101643.41;;;15.42;nan
70053;BME280;57398;52.032;4.376;2023-08-21T01:38:36;101653.75;;;15.37;nan
70053;BME280;57398;52.032;4.376;2023-08-21T01:41:26;101662.84;;;15.34;nan
70053;BME280;57398;52.032;4.376;2023-08-21T01:44:14;101661.97;;;15.28;nan
70053;BME280;57398;52.032;4.376;2023-08-21T01:47:02;101657.88;;;15.33;nan
70053;BME280;57398;52.032;4.376;2023-08-21T01:49:50;101712.50;;;15.29;nan
70053;BME280;57398;52.032;4.376;2023-08-21T01:52:39;101672.06;;;15.37;nan
70053;BME280;57398;52.032;4.376;2023-08-21T01:55:27;101677.56;;;15.35;nan
70053;BME280;57398;52.032;4.376;2023-08-21T01:58:16;101670.50;;;15.36;nan
70053;BME280;57398;52.032;4.376;2023-08-21T02:03:52;101669.69;;;15.35;nan
70053;BME280;57398;52.032;4.376;2023-08-21T02:06:41;101651.03;;;15.32;nan
70053;BME280;57398;52.032;4.376;2023-08-21T02:09:30;101584.69;;;15.26;nan
70053;BME280;57398;52.032;4.376;2023-08-21T02:12:18;101631.47;;;15.22;nan
70053;BME280;57398;52.032;4.376;2023-08-21T02:15:09;101588.81;;;15.10;nan
70053;BME280;57398;52.032;4.376;2023-08-21T02:17:58;101580.63;;;15.06;nan
70053;BME280;57398;52.032;4.376;2023-08-21T02:20:47;101619.88;;;15.06;nan
70053;BME280;57398;52.032;4.376;2023-08-21T02:23:35;101587.13;;;15.04;nan
70053;BME280;57398;52.032;4.376;2023-08-21T02:26:23;101626.25;;;14.99;nan
70053;BME280;57398;52.032;4.376;2023-08-21T02:29:11;101598.97;;;14.95;nan
70053;BME280;57398;52.032;4.376;2023-08-21T02:32:01;101644.91;;;14.91;nan
70053;BME280;57398;52.032;4.376;2023-08-21T02:34:49;101583.06;;;14.84;nan
70053;BME280;57398;52.032;4.376;2023-08-21T02:37:37;101621.72;;;14.82;nan
70053;BME280;57398;52.032;4.376;2023-08-21T02:40:26;101648.88;;;14.81;nan
70053;BME280;57398;52.032;4.376;2023-08-21T02:43:15;101589.41;;;14.77;nan
70053;BME280;57398;52.032;4.376;2023-08-21T02:46:04;101636.47;;;14.77;nan
70053;BME280;57398;52.032;4.376;2023-08-21T02:48:53;101665.59;;;14.80;nan
70053;BME280;57398;52.032;4.376;2023-08-21T02:51:41;101669.47;;;14.78;nan
70053;BME280;57398;52.032;4.376;2023-08-21T02:54:30;101672.75;;;14.73;nan
70053;BME280;57398;52.032;4.376;2023-08-21T03:00:07;101686.72;;;14.67;nan
70053;BME280;57398;52.032;4.376;2023-08-21T03:02:55;101672.75;;;14.61;nan
70053;BME280;57398;52.032;4.376;2023-08-21T03:05:45;101671.94;;;14.61;nan
70053;BME280;57398;52.032;4.376;2023-08-21T03:08:33;101676.81;;;14.57;nan
70053;BME280;57398;52.032;4.376;2023-08-21T03:11:21;101667.94;;;14.58;nan
70053;BME280;57398;52.032;4.376;2023-08-21T03:14:09;101656.34;;;14.54;nan
70053;BME280;57398;52.032;4.376;2023-08-21T03:16:57;101707.22;;;14.52;nan
70053;BME280;57398;52.032;4.376;2023-08-21T03:19:46;101666.84;;;14.48;nan
70053;BME280;57398;52.032;4.376;2023-08-21T03:22:35;101663.13;;;14.43;nan
70053;BME280;57398;52.032;4.376;2023-08-21T03:25:24;101673.22;;;14.40;nan
70053;BME280;57398;52.032;4.376;2023-08-21T03:28:12;101679.69;;;14.37;nan
70053;BME280;57398;52.032;4.376;2023-08-21T03:31:00;101669.22;;;14.37;nan
70053;BME280;57398;52.032;4.376;2023-08-21T03:33:48;101669.09;;;14.32;nan
70053;BME280;57398;52.032;4.376;2023-08-21T03:36:36;101674.63;;;14.24;nan
70053;BME280;57398;52.032;4.376;2023-08-21T03:39:27;101796.66;;;14.23;nan
70053;BME280;57398;52.032;4.376;2023-08-21T03:42:15;101678.03;;;14.24;nan
70053;BME280;57398;52.032;4.376;2023-08-21T03:45:04;101679.88;;;14.24;nan
70053;BME280;57398;52.032;4.376;2023-08-21T03:47:52;101679.06;;;14.23;nan
70053;BME280;57398;52.032;4.376;2023-08-21T03:50:41;101675.31;;;14.19;nan
70053;BME280;57398;52.032;4.376;2023-08-21T03:56:18;101682.22;;;14.14;nan
70053;BME280;57398;52.032;4.376;2023-08-21T03:59:06;101686.06;;;14.11;nan
70053;BME280;57398;52.032;4.376;2023-08-21T04:01:54;101677.41;;;14.11;nan
70053;BME280;57398;52.032;4.376;2023-08-21T04:04:43;101659.59;;;14.08;nan
70053;BME280;57398;52.032;4.376;2023-08-21T04:07:31;101643.31;;;14.06;nan
70053;BME280;57398;52.032;4.376;2023-08-21T04:10:19;101641.38;;;14.01;nan
70053;BME280;57398;52.032;4.376;2023-08-21T04:13:09;101636.38;;;13.99;nan
70053;BME280;57398;52.032;4.376;2023-08-21T04:21:33;101634.22;;;13.96;nan
70053;BME280;57398;52.032;4.376;2023-08-21T04:24:21;101626.38;;;13.96;nan
70053;BME280;57398;52.032;4.376;2023-08-21T04:27:09;101614.56;;;13.94;nan
70053;BME280;57398;52.032;4.376;2023-08-21T04:29:59;101592.63;;;13.95;nan
70053;BME280;57398;52.032;4.376;2023-08-21T04:32:47;101598.31;;;13.92;nan
70053;BME280;57398;52.032;4.376;2023-08-21T04:35:37;101591.72;;;13.89;nan
70053;BME280;57398;52.032;4.376;2023-08-21T04:38:25;101593.53;;;13.89;nan
70053;BME280;57398;52.032;4.376;2023-08-21T04:41:13;101596.34;;;13.87;nan
70053;BME280;57398;52.032;4.376;2023-08-21T04:44:02;101597.16;;;13.88;nan
70053;BME280;57398;52.032;4.376;2023-08-21T04:49:39;101585.25;;;13.92;nan
70053;BME280;57398;52.032;4.376;2023-08-21T04:55:16;101571.63;;;14.01;nan
70053;BME280;57398;52.032;4.376;2023-08-21T05:00:52;101469.75;;;14.01;nan
70053;BME280;57398;52.032;4.376;2023-08-21T05:03:42;101428.31;;;14.05;nan
70053;BME280;57398;52.032;4.376;2023-08-21T05:06:30;101411.88;;;14.04;nan
70053;BME280;57398;52.032;4.376;2023-08-21T05:09:18;101396.19;;;14.04;nan
70053;BME280;57398;52.032;4.376;2023-08-21T05:12:07;101381.88;;;14.07;nan
70053;BME280;57398;52.032;4.376;2023-08-21T05:14:55;101393.22;;;14.13;nan
70053;BME280;57398;52.032;4.376;2023-08-21T05:17:44;101447.66;;;14.16;nan
70053;BME280;57398;52.032;4.376;2023-08-21T05:20:33;101453.66;;;14.16;nan
70053;BME280;57398;52.032;4.376;2023-08-21T05:23:22;101469.66;;;14.20;nan
70053;BME280;57398;52.032;4.376;2023-08-21T05:26:10;101432.75;;;14.28;nan
70053;BME280;57398;52.032;4.376;2023-08-21T05:28:58;101448.22;;;14.30;nan
70053;BME280;57398;52.032;4.376;2023-08-21T05:31:46;101454.56;;;14.34;nan
70053;BME280;57398;52.032;4.376;2023-08-21T05:34:35;101480.00;;;14.38;nan
70053;BME280;57398;52.032;4.376;2023-08-21T05:37:25;101474.44;;;14.46;nan
70053;BME280;57398;52.032;4.376;2023-08-21T05:40:14;101434.34;;;14.53;nan
70053;BME280;57398;52.032;4.376;2023-08-21T05:43:02;101432.88;;;14.69;nan
70053;BME280;57398;52.032;4.376;2023-08-21T05:45:51;101462.84;;;14.78;nan
70053;BME280;57398;52.032;4.376;2023-08-21T05:48:39;101449.53;;;14.79;nan
70053;BME280;57398;52.032;4.376;2023-08-21T05:51:27;101411.44;;;14.83;nan
70053;BME280;57398;52.032;4.376;2023-08-21T05:54:17;101400.78;;;15.02;nan
70053;BME280;57398;52.032;4.376;2023-08-21T05:57:05;101466.50;;;15.17;nan
70053;BME280;57398;52.032;4.376;2023-08-21T05:59:53;101409.00;;;15.22;nan
70053;BME280;57398;52.032;4.376;2023-08-21T06:02:41;101314.41;;;15.31;nan
70053;BME280;57398;52.032;4.376;2023-08-21T06:05:30;101305.03;;;15.52;nan
70053;BME280;57398;52.032;4.376;2023-08-21T06:08:18;101285.03;;;15.79;nan
70053;BME280;57398;52.032;4.376;2023-08-21T06:11:07;101231.50;;;15.92;nan
70053;BME280;57398;52.032;4.376;2023-08-21T06:13:56;101188.44;;;16.10;nan
70053;BME280;57398;52.032;4.376;2023-08-21T06:16:44;101178.56;;;16.17;nan
70053;BME280;57398;52.032;4.376;2023-08-21T06:19:32;101146.16;;;16.28;nan
70053;BME280;57398;52.032;4.376;2023-08-21T06:22:21;101106.44;;;16.47;nan
70053;BME280;57398;52.032;4.376;2023-08-21T06:25:09;101118.69;;;16.68;nan
70053;BME280;57398;52.032;4.376;2023-08-21T06:27:58;101019.38;;;16.82;nan
70053;BME280;57398;52.032;4.376;2023-08-21T06:30:48;100985.28;;;16.87;nan
70053;BME280;57398;52.032;4.376;2023-08-21T06:36:29;100911.38;;;17.21;nan
70053;BME280;57398;52.032;4.376;2023-08-21T06:39:17;100888.03;;;17.35;nan
70053;BME280;57398;52.032;4.376;2023-08-21T06:42:05;100945.78;;;17.35;nan
70053;BME280;57398;52.032;4.376;2023-08-21T06:47:43;100962.59;;;17.44;nan
70053;BME280;57398;52.032;4.376;2023-08-21T06:50:31;100971.56;;;17.74;nan
70053;BME280;57398;52.032;4.376;2023-08-21T06:53:20;100993.09;;;17.66;nan
70053;BME280;57398;52.032;4.376;2023-08-21T06:56:08;101019.34;;;17.61;nan
70053;BME280;57398;52.032;4.376;2023-08-21T06:58:56;101040.66;;;17.64;nan
70053;BME280;57398;52.032;4.376;2023-08-21T07:01:45;101074.31;;;17.77;nan
70053;BME280;57398;52.032;4.376;2023-08-21T07:04:34;101101.66;;;17.82;nan
70053;BME280;57398;52.032;4.376;2023-08-21T07:10:10;101140.59;;;18.05;nan
70053;BME280;57398;52.032;4.376;2023-08-21T07:15:47;101166.66;;;18.17;nan
70053;BME280;57398;52.032;4.376;2023-08-21T07:18:38;101266.88;;;18.41;nan
70053;BME280;57398;52.032;4.376;2023-08-21T07:21:27;101324.75;;;18.46;nan
70053;BME280;57398;52.032;4.376;2023-08-21T07:24:20;101375.31;;;18.53;nan
70053;BME280;57398;52.032;4.376;2023-08-21T07:27:08;101413.72;;;18.59;nan
70053;BME280;57398;52.032;4.376;2023-08-21T07:29:56;101459.28;;;18.65;nan
70053;BME280;57398;52.032;4.376;2023-08-21T07:32:45;101485.31;;;18.67;nan
70053;BME280;57398;52.032;4.376;2023-08-21T07:35:35;101512.81;;;18.81;nan
70053;BME280;57398;52.032;4.376;2023-08-21T07:38:23;101535.97;;;18.84;nan
70053;BME280;57398;52.032;4.376;2023-08-21T07:41:12;101570.50;;;18.93;nan
70053;BME280;57398;52.032;4.376;2023-08-21T07:44:01;101704.78;;;18.98;nan
70053;BME280;57398;52.032;4.376;2023-08-21T07:46:49;101624.47;;;18.95;nan
70053;BME280;57398;52.032;4.376;2023-08-21T07:49:38;101665.88;;;19.05;nan
70053;BME280;57398;52.032;4.376;2023-08-21T07:52:27;101706.75;;;19.13;nan
70053;BME280;57398;52.032;4.376;2023-08-21T07:55:16;101740.75;;;19.19;nan
70053;BME280;57398;52.032;4.376;2023-08-21T08:00:52;101751.06;;;19.26;nan
70053;BME280;57398;52.032;4.376;2023-08-21T08:03:40;101767.38;;;19.23;nan
70053;BME280;57398;52.032;4.376;2023-08-21T08:06:28;101774.75;;;19.26;nan
70053;BME280;57398;52.032;4.376;2023-08-21T08:09:18;101772.19;;;19.31;nan
70053;BME280;57398;52.032;4.376;2023-08-21T08:12:07;101795.41;;;19.39;nan
70053;BME280;57398;52.032;4.376;2023-08-21T08:14:55;101807.00;;;19.38;nan
70053;BME280;57398;52.032;4.376;2023-08-21T08:17:43;101799.88;;;19.39;nan
70053;BME280;57398;52.032;4.376;2023-08-21T08:20:33;101810.03;;;19.62;nan
70053;BME280;57398;52.032;4.376;2023-08-21T08:23:21;101823.34;;;19.78;nan
70053;BME280;57398;52.032;4.376;2023-08-21T08:26:11;101836.63;;;20.03;nan
70053;BME280;57398;52.032;4.376;2023-08-21T08:28:59;101842.69;;;19.99;nan
70053;BME280;57398;52.032;4.376;2023-08-21T08:31:48;101841.19;;;20.18;nan
70053;BME280;57398;52.032;4.376;2023-08-21T08:34:36;101847.28;;;20.29;nan
70053;BME280;57398;52.032;4.376;2023-08-21T08:37:24;101862.84;;;20.20;nan
70053;BME280;57398;52.032;4.376;2023-08-21T08:40:13;101915.94;;;20.34;nan
70053;BME280;57398;52.032;4.376;2023-08-21T08:43:02;101904.31;;;20.35;nan
70053;BME280;57398;52.032;4.376;2023-08-21T08:45:52;101917.75;;;20.34;nan
70053;BME280;57398;52.032;4.376;2023-08-21T08:48:42;101938.69;;;21.49;nan
70053;BME280;57398;52.032;4.376;2023-08-21T08:51:31;101986.41;;;22.45;nan
70053;BME280;57398;52.032;4.376;2023-08-21T08:54:25;102033.94;;;23.36;nan
70053;BME280;57398;52.032;4.376;2023-08-21T08:57:14;102090.38;;;23.86;nan
70053;BME280;57398;52.032;4.376;2023-08-21T09:00:05;102129.56;;;23.00;nan
70053;BME280;57398;52.032;4.376;2023-08-21T09:02:54;102140.25;;;24.53;nan
70053;BME280;57398;52.032;4.376;2023-08-21T09:05:43;102204.88;;;24.43;nan
70053;BME280;57398;52.032;4.376;2023-08-21T09:08:31;102206.50;;;24.39;nan
70053;BME280;57398;52.032;4.376;2023-08-21T09:11:20;102267.13;;;23.82;nan
70053;BME280;57398;52.032;4.376;2023-08-21T09:14:08;102239.34;;;23.59;nan
70053;BME280;57398;52.032;4.376;2023-08-21T09:17:00;102282.72;;;24.78;nan
70053;BME280;57398;52.032;4.376;2023-08-21T09:19:50;102352.56;;;25.13;nan
70053;BME280;57398;52.032;4.376;2023-08-21T09:22:38;102304.03;;;25.55;nan
70053;BME280;57398;52.032;4.376;2023-08-21T09:25:27;102292.19;;;26.09;nan
70053;BME280;57398;52.032;4.376;2023-08-21T09:28:18;101743.56;;;26.60;nan
70053;BME280;57398;52.032;4.376;2023-08-21T09:31:08;101731.53;;;26.26;nan
70053;BME280;57398;52.032;4.376;2023-08-21T09:33:58;101674.41;;;25.73;nan
70053;BME280;57398;52.032;4.376;2023-08-21T09:39:41;101514.50;;;24.65;nan
70053;BME280;57398;52.032;4.376;2023-08-21T09:42:31;101403.72;;;24.38;nan
70053;BME280;57398;52.032;4.376;2023-08-21T09:45:20;101457.91;;;24.65;nan
70053;BME280;57398;52.032;4.376;2023-08-21T09:48:09;101360.59;;;24.92;nan
70053;BME280;57398;52.032;4.376;2023-08-21T09:50:59;101393.47;;;24.59;nan
70053;BME280;57398;52.032;4.376;2023-08-21T09:53:51;101408.19;;;24.79;nan
70053;BME280;57398;52.032;4.376;2023-08-21T09:56:42;101493.91;;;24.57;nan
70053;BME280;57398;52.032;4.376;2023-08-21T10:02:19;101406.91;;;23.85;nan
70053;BME280;57398;52.032;4.376;2023-08-21T10:05:09;101466.38;;;24.67;nan
70053;BME280;57398;52.032;4.376;2023-08-21T10:08:01;101459.50;;;24.38;nan
70053;BME280;57398;52.032;4.376;2023-08-21T10:13:38;101621.41;;;24.99;nan
70053;BME280;57398;52.032;4.376;2023-08-21T10:16:27;101626.84;;;24.94;nan
70053;BME280;57398;52.032;4.376;2023-08-21T10:19:17;101619.63;;;24.53;nan
70053;BME280;57398;52.032;4.376;2023-08-21T10:22:05;101558.63;;;25.03;nan
70053;BME280;57398;52.032;4.376;2023-08-21T10:24:59;101610.91;;;25.21;nan
70053;BME280;57398;52.032;4.376;2023-08-21T10:27:50;101671.91;;;24.85;nan
70053;BME280;57398;52.032;4.376;2023-08-21T10:37:07;101488.94;;;23.81;nan
70053;BME280;57398;52.032;4.376;2023-08-21T10:39:58;101587.53;;;24.21;nan
70053;BME280;57398;52.032;4.376;2023-08-21T10:42:46;101562.38;;;24.33;nan
70053;BME280;57398;52.032;4.376;2023-08-21T10:45:53;101632.00;;;24.43;nan
70053;BME280;57398;52.032;4.376;2023-08-21T10:48:42;101645.91;;;24.54;nan
70053;BME280;57398;52.032;4.376;2023-08-21T10:51:30;102248.16;;;24.43;nan
70053;BME280;57398;52.032;4.376;2023-08-21T10:54:18;102339.75;;;24.56;nan
70053;BME280;57398;52.032;4.376;2023-08-21T10:57:09;102329.25;;;24.75;nan
70053;BME280;57398;52.032;4.376;2023-08-21T10:59:58;102399.94;;;24.71;nan
70053;BME280;57398;52.032;4.376;2023-08-21T11:05:36;102256.09;;;24.49;nan
70053;BME280;57398;52.032;4.376;2023-08-21T11:08:24;102376.78;;;24.32;nan
70053;BME280;57398;52.032;4.376;2023-08-21T11:11:12;102365.03;;;24.49;nan
70053;BME280;57398;52.032;4.376;2023-08-21T11:14:02;102399.94;;;24.21;nan
70053;BME280;57398;52.032;4.376;2023-08-21T11:16:51;102416.28;;;24.44;nan
70053;BME280;57398;52.032;4.376;2023-08-21T11:19:41;102445.38;;;24.75;nan
70053;BME280;57398;52.032;4.376;2023-08-21T11:22:31;102407.31;;;24.84;nan
70053;BME280;57398;52.032;4.376;2023-08-21T11:28:08;102394.13;;;24.69;nan
70053;BME280;57398;52.032;4.376;2023-08-21T11:30:58;102405.34;;;24.61;nan
70053;BME280;57398;52.032;4.376;2023-08-21T11:33:49;102410.38;;;23.97;nan
70053;BME280;57398;52.032;4.376;2023-08-21T11:36:39;102327.25;;;24.07;nan
70053;BME280;57398;52.032;4.376;2023-08-21T11:42:29;102528.38;;;24.46;nan
70053;BME280;57398;52.032;4.376;2023-08-21T11:45:20;102478.13;;;24.65;nan
70053;BME280;57398;52.032;4.376;2023-08-21T11:48:10;102391.78;;;24.62;nan
70053;BME280;57398;52.032;4.376;2023-08-21T11:50:58;102422.22;;;24.31;nan
70053;BME280;57398;52.032;4.376;2023-08-21T11:53:47;102325.25;;;24.33;nan
70053;BME280;57398;52.032;4.376;2023-08-21T11:59:29;102316.81;;;24.21;nan
70053;BME280;57398;52.032;4.376;2023-08-21T12:02:21;102384.38;;;23.94;nan
70053;BME280;57398;52.032;4.376;2023-08-21T12:05:14;102367.13;;;23.97;nan
70053;BME280;57398;52.032;4.376;2023-08-21T12:08:03;102355.00;;;24.30;nan
70053;BME280;57398;52.032;4.376;2023-08-21T12:10:51;102344.16;;;24.71;nan
70053;BME280;57398;52.032;4.376;2023-08-21T12:16:28;102304.31;;;24.27;nan
70053;BME280;57398;52.032;4.376;2023-08-21T12:19:16;102360.41;;;24.15;nan
70053;BME280;57398;52.032;4.376;2023-08-21T12:22:06;102351.66;;;24.64;nan
70053;BME280;57398;52.032;4.376;2023-08-21T12:24:54;102408.63;;;24.37;nan
70053;BME280;57398;52.032;4.376;2023-08-21T12:27:42;102373.41;;;24.16;nan
70053;BME280;57398;52.032;4.376;2023-08-21T12:30:32;102357.50;;;24.11;nan
70053;BME280;57398;52.032;4.376;2023-08-21T12:33:20;102373.78;;;24.44;nan
70053;BME280;57398;52.032;4.376;2023-08-21T12:36:10;102397.34;;;24.06;nan
70053;BME280;57398;52.032;4.376;2023-08-21T12:39:01;102328.19;;;24.32;nan
70053;BME280;57398;52.032;4.376;2023-08-21T12:41:50;102390.31;;;24.85;nan
70053;BME280;57398;52.032;4.376;2023-08-21T12:44:38;102402.94;;;25.04;nan
70053;BME280;57398;52.032;4.376;2023-08-21T12:47:26;102353.94;;;24.31;nan
70053;BME280;57398;52.032;4.376;2023-08-21T12:50:15;102323.25;;;24.94;nan
70053;BME280;57398;52.032;4.376;2023-08-21T12:53:03;102344.81;;;24.53;nan
70053;BME280;57398;52.032;4.376;2023-08-21T12:55:52;102392.59;;;24.63;nan
70053;BME280;57398;52.032;4.376;2023-08-21T12:58:41;102378.22;;;24.98;nan
70053;BME280;57398;52.032;4.376;2023-08-21T13:01:29;102401.25;;;25.13;nan
70053;BME280;57398;52.032;4.376;2023-08-21T13:07:06;102367.13;;;25.25;nan
70053;BME280;57398;52.032;4.376;2023-08-21T13:09:55;102383.38;;;24.84;nan
70053;BME280;57398;52.032;4.376;2023-08-21T13:12:47;102394.59;;;24.81;nan
70053;BME280;57398;52.032;4.376;2023-08-21T13:15:35;102344.44;;;25.04;nan
70053;BME280;57398;52.032;4.376;2023-08-21T13:18:24;102407.41;;;25.08;nan
70053;BME280;57398;52.032;4.376;2023-08-21T13:21:12;102361.09;;;24.36;nan
70053;BME280;57398;52.032;4.376;2023-08-21T13:24:00;102333.50;;;24.76;nan
70053;BME280;57398;52.032;4.376;2023-08-21T13:26:49;102325.69;;;24.90;nan
70053;BME280;57398;52.032;4.376;2023-08-21T13:29:39;102351.06;;;25.06;nan
70053;BME280;57398;52.032;4.376;2023-08-21T13:32:28;102370.56;;;25.26;nan
70053;BME280;57398;52.032;4.376;2023-08-21T13:35:17;102390.16;;;25.01;nan
70053;BME280;57398;52.032;4.376;2023-08-21T13:38:06;102347.44;;;24.92;nan
70053;BME280;57398;52.032;4.376;2023-08-21T13:40:55;102342.56;;;25.04;nan
70053;BME280;57398;52.032;4.376;2023-08-21T13:43:43;102347.22;;;25.23;nan
70053;BME280;57398;52.032;4.376;2023-08-21T13:46:34;102335.00;;;24.48;nan
70053;BME280;57398;52.032;4.376;2023-08-21T13:49:22;102315.91;;;24.80;nan
70053;BME280;57398;52.032;4.376;2023-08-21T13:52:10;102326.22;;;24.53;nan
70053;BME280;57398;52.032;4.376;2023-08-21T13:54:58;102332.81;;;24.60;nan
70053;BME280;57398;52.032;4.376;2023-08-21T13:57:47;102369.38;;;25.08;nan
70053;BME280;57398;52.032;4.376;2023-08-21T14:00:35;102329.03;;;25.30;nan
70053;BME280;57398;52.032;4.376;2023-08-21T14:03:24;102342.97;;;25.46;nan
70053;BME280;57398;52.032;4.376;2023-08-21T14:06:13;102313.78;;;24.43;nan
70053;BME280;57398;52.032;4.376;2023-08-21T14:09:01;102321.81;;;24.33;nan
70053;BME280;57398;52.032;4.376;2023-08-21T14:11:49;102312.53;;;25.04;nan
70053;BME280;57398;52.032;4.376;2023-08-21T14:14:37;102319.81;;;25.22;nan
70053;BME280;57398;52.032;4.376;2023-08-21T14:17:26;102395.47;;;25.06;nan
70053;BME280;57398;52.032;4.376;2023-08-21T14:20:16;102305.41;;;24.65;nan
70053;BME280;57398;52.032;4.376;2023-08-21T14:23:04;102331.81;;;24.46;nan
70053;BME280;57398;52.032;4.376;2023-08-21T14:25:53;102317.06;;;24.69;nan
70053;BME280;57398;52.032;4.376;2023-08-21T14:31:33;102270.38;;;25.16;nan
70053;BME280;57398;52.032;4.376;2023-08-21T14:34:21;102277.63;;;24.02;nan
70053;BME280;57398;52.032;4.376;2023-08-21T14:37:11;102332.59;;;24.52;nan
70053;BME280;57398;52.032;4.376;2023-08-21T14:40:02;102268.16;;;24.36;nan
70053;BME280;57398;52.032;4.376;2023-08-21T14:42:54;102317.56;;;24.71;nan
70053;BME280;57398;52.032;4.376;2023-08-21T14:45:42;102294.13;;;24.49;nan
70053;BME280;57398;52.032;4.376;2023-08-21T14:48:30;102298.06;;;24.52;nan
70053;BME280;57398;52.032;4.376;2023-08-21T14:51:18;102301.03;;;24.79;nan
70053;BME280;57398;52.032;4.376;2023-08-21T14:56:55;102227.75;;;23.99;nan
70053;BME280;57398;52.032;4.376;2023-08-21T14:59:44;102224.00;;;24.06;nan
70053;BME280;57398;52.032;4.376;2023-08-21T15:02:32;102259.19;;;23.72;nan
70053;BME280;57398;52.032;4.376;2023-08-21T15:05:20;102263.63;;;23.97;nan
70053;BME280;57398;52.032;4.376;2023-08-21T15:08:08;102260.28;;;24.60;nan
70053;BME280;57398;52.032;4.376;2023-08-21T15:10:58;102273.53;;;24.94;nan
70053;BME280;57398;52.032;4.376;2023-08-21T15:13:46;102282.28;;;24.65;nan
70053;BME280;57398;52.032;4.376;2023-08-21T15:16:34;102275.63;;;24.68;nan
70053;BME280;57398;52.032;4.376;2023-08-21T15:19:22;102246.31;;;24.04;nan
70053;BME280;57398;52.032;4.376;2023-08-21T15:22:11;102221.78;;;23.78;nan
70053;BME280;57398;52.032;4.376;2023-08-21T15:24:59;102221.44;;;24.30;nan
70053;BME280;57398;52.032;4.376;2023-08-21T15:27:49;102250.44;;;24.21;nan
70053;BME280;57398;52.032;4.376;2023-08-21T15:30:38;102211.28;;;24.37;nan
70053;BME280;57398;52.032;4.376;2023-08-21T15:36:17;102226.28;;;23.83;nan
70053;BME280;57398;52.032;4.376;2023-08-21T15:41:53;102261.06;;;24.26;nan
70053;BME280;57398;52.032;4.376;2023-08-21T15:44:42;102231.69;;;24.12;nan
70053;BME280;57398;52.032;4.376;2023-08-21T15:50:22;102292.53;;;23.98;nan
70053;BME280;57398;52.032;4.376;2023-08-21T15:55:58;102238.97;;;24.31;nan
70053;BME280;57398;52.032;4.376;2023-08-21T15:58:46;102261.38;;;24.14;nan
70053;BME280;57398;52.032;4.376;2023-08-21T16:01:37;102219.41;;;24.21;nan
70053;BME280;57398;52.032;4.376;2023-08-21T16:04:28;102236.41;;;23.76;nan
70053;BME280;57398;52.032;4.376;2023-08-21T16:07:16;102200.03;;;24.16;nan
70053;BME280;57398;52.032;4.376;2023-08-21T16:10:05;102203.69;;;24.25;nan
70053;BME280;57398;52.032;4.376;2023-08-21T16:12:54;102191.94;;;23.42;nan
70053;BME280;57398;52.032;4.376;2023-08-21T16:15:42;102152.50;;;23.30;nan
70053;BME280;57398;52.032;4.376;2023-08-21T16:18:32;102179.44;;;23.48;nan
70053;BME280;57398;52.032;4.376;2023-08-21T16:21:24;102132.50;;;23.53;nan
70053;BME280;57398;52.032;4.376;2023-08-21T16:24:12;102137.09;;;23.82;nan
70053;BME280;57398;52.032;4.376;2023-08-21T16:27:00;102162.63;;;23.68;nan
70053;BME280;57398;52.032;4.376;2023-08-21T16:29:49;102104.72;;;23.40;nan
70053;BME280;57398;52.032;4.376;2023-08-21T16:32:37;102105.56;;;23.31;nan
70053;BME280;57398;52.032;4.376;2023-08-21T16:38:15;102107.06;;;23.47;nan
70053;BME280;57398;52.032;4.376;2023-08-21T16:41:03;102079.78;;;23.41;nan
70053;BME280;57398;52.032;4.376;2023-08-21T16:43:52;102080.94;;;23.25;nan